sensor_id;sensor_type;location;lat;lon;timestamp;temperature;humidity
27900;DHT22;15243;50.726;7.080;2022-08-05T14:53:12;24.30;99.90
27900;DHT22;15243;50.726;7.080;2022-08-05T14:55:39;23.90;99.90
27900;DHT22;15243;50.726;7.080;2022-08-05T14:58:07;23.80;99.90
27900;DHT22;15243;50.726;7.080;2022-08-05T15:00:38;23.60;99.90
27900;DHT22;15243;50.726;7.080;2022-08-05T15:03:24;23.40;99.90
27900;DHT22;15243;50.726;7.080;2022-08-05T15:05:51;23.30;99.90
27900;DHT22;15243;50.726;7.080;2022-08-05T15:08:42;23.60;99.90
27900;DHT22;15243;50.726;7.080;2022-08-05T15:15:33;23.30;99.90
27900;DHT22;15243;50.726;7.080;2022-08-05T15:48:38;22.80;99.90
27900;DHT22;15243;50.726;7.080;2022-08-05T15:51:18;22.50;99.90
27900;DHT22;15243;50.726;7.080;2022-08-05T15:54:08;22.60;99.90
27900;DHT22;15243;50.726;7.080;2022-08-05T15:56:40;22.50;99.90
27900;DHT22;15243;50.726;7.080;2022-08-05T15:59:09;22.40;99.90
27900;DHT22;15243;50.726;7.080;2022-08-05T16:01:48;22.30;99.90
27900;DHT22;15243;50.726;7.080;2022-08-05T16:04:19;22.30;99.90
27900;DHT22;15243;50.726;7.080;2022-08-05T16:06:54;22.30;99.90
27900;DHT22;15243;50.726;7.080;2022-08-05T16:09:22;22.40;99.90
27900;DHT22;15243;50.726;7.080;2022-08-05T16:11:50;22.30;99.90
27900;DHT22;15243;50.726;7.080;2022-08-05T16:14:19;22.30;99.90
27900;DHT22;15243;50.726;7.080;2022-08-05T16:16:48;22.20;99.90
27900;DHT22;15243;50.726;7.080;2022-08-05T16:19:15;22.30;99.90
27900;DHT22;15243;50.726;7.080;2022-08-05T16:22:02;22.20;99.90
27900;DHT22;15243;50.726;7.080;2022-08-05T16:24:30;22.20;99.90
27900;DHT22;15243;50.726;7.080;2022-08-05T16:27:16;22.30;99.90
27900;DHT22;15243;50.726;7.080;2022-08-05T16:29:43;22.30;99.90
27900;DHT22;15243;50.726;7.080;2022-08-05T16:32:17;22.30;99.90
27900;DHT22;15243;50.726;7.080;2022-08-05T16:34:54;22.30;99.90
27900;DHT22;15243;50.726;7.080;2022-08-05T16:37:22;22.20;99.90
27900;DHT22;15243;50.726;7.080;2022-08-05T16:40:09;22.20;99.90
27900;DHT22;15243;50.726;7.080;2022-08-05T16:42:51;22.30;99.90
27900;DHT22;15243;50.726;7.080;2022-08-05T16:45:18;22.30;99.90
27900;DHT22;15243;50.726;7.080;2022-08-05T16:48:05;22.30;99.90
27900;DHT22;15243;50.726;7.080;2022-08-05T16:50:35;22.30;99.90
27900;DHT22;15243;50.726;7.080;2022-08-05T16:53:02;22.20;99.90
27900;DHT22;15243;50.726;7.080;2022-08-05T16:55:47;22.20;99.90
27900;DHT22;15243;50.726;7.080;2022-08-05T16:58:14;22.30;99.90
27900;DHT22;15243;50.726;7.080;2022-08-05T17:00:46;22.20;99.90
27900;DHT22;15243;50.726;7.080;2022-08-05T17:03:15;22.20;99.90
27900;DHT22;15243;50.726;7.080;2022-08-05T17:05:46;22.20;99.90
27900;DHT22;15243;50.726;7.080;2022-08-05T17:08:19;22.30;99.90
27900;DHT22;15243;50.726;7.080;2022-08-05T17:11:07;22.30;99.90
27900;DHT22;15243;50.726;7.080;2022-08-05T17:13:42;22.10;99.90
27900;DHT22;15243;50.726;7.080;2022-08-05T17:16:09;22.10;99.90
27900;DHT22;15243;50.726;7.080;2022-08-05T17:18:56;22.00;99.90
27900;DHT22;15243;50.726;7.080;2022-08-05T17:21:23;21.90;99.90
27900;DHT22;15243;50.726;7.080;2022-08-05T17:23:50;21.90;99.90
27900;DHT22;15243;50.726;7.080;2022-08-05T17:26:37;21.90;99.90
27900;DHT22;15243;50.726;7.080;2022-08-05T17:29:06;21.80;99.90
27900;DHT22;15243;50.726;7.080;2022-08-05T17:31:35;21.70;99.90
27900;DHT22;15243;50.726;7.080;2022-08-05T17:34:22;21.60;99.90
27900;DHT22;15243;50.726;7.080;2022-08-05T17:36:58;21.60;99.90
27900;DHT22;15243;50.726;7.080;2022-08-05T17:39:26;21.50;99.90
27900;DHT22;15243;50.726;7.080;2022-08-05T17:42:00;21.60;99.90
27900;DHT22;15243;50.726;7.080;2022-08-05T17:44:48;21.70;99.90
27900;DHT22;15243;50.726;7.080;2022-08-05T17:47:27;21.70;99.90
27900;DHT22;15243;50.726;7.080;2022-08-05T17:49:57;21.60;99.90
27900;DHT22;15243;50.726;7.080;2022-08-05T17:52:30;21.50;99.90
27900;DHT22;15243;50.726;7.080;2022-08-05T17:54:59;21.60;99.90
27900;DHT22;15243;50.726;7.080;2022-08-05T17:57:28;21.60;99.90
27900;DHT22;15243;50.726;7.080;2022-08-05T17:59:57;21.80;99.90
27900;DHT22;15243;50.726;7.080;2022-08-05T18:02:32;21.70;99.90
27900;DHT22;15243;50.726;7.080;2022-08-05T18:05:01;21.70;99.90
27900;DHT22;15243;50.726;7.080;2022-08-05T18:07:34;21.60;99.90
27900;DHT22;15243;50.726;7.080;2022-08-05T18:10:09;21.60;99.90
27900;DHT22;15243;50.726;7.080;2022-08-05T18:12:37;21.60;99.90
27900;DHT22;15243;50.726;7.080;2022-08-05T18:15:05;21.70;99.90
27900;DHT22;15243;50.726;7.080;2022-08-05T18:17:34;21.60;99.90
27900;DHT22;15243;50.726;7.080;2022-08-05T18:20:22;21.60;99.90
27900;DHT22;15243;50.726;7.080;2022-08-05T18:22:58;21.50;99.90
27900;DHT22;15243;50.726;7.080;2022-08-05T18:25:35;21.50;99.90
27900;DHT22;15243;50.726;7.080;2022-08-05T18:28:05;21.50;99.90
27900;DHT22;15243;50.726;7.080;2022-08-05T18:30:35;21.50;99.90
27900;DHT22;15243;50.726;7.080;2022-08-05T18:33:05;21.50;99.90
27900;DHT22;15243;50.726;7.080;2022-08-05T18:35:33;21.30;99.90
27900;DHT22;15243;50.726;7.080;2022-08-05T18:38:20;21.20;99.90
27900;DHT22;15243;50.726;7.080;2022-08-05T18:40:53;21.10;99.90
27900;DHT22;15243;50.726;7.080;2022-08-05T18:43:40;21.00;99.90
27900;DHT22;15243;50.726;7.080;2022-08-05T18:46:15;20.90;99.90
27900;DHT22;15243;50.726;7.080;2022-08-05T18:48:47;20.90;99.90
27900;DHT22;15243;50.726;7.080;2022-08-05T18:51:19;21.00;99.90
27900;DHT22;15243;50.726;7.080;2022-08-05T18:54:24;21.00;99.90
27900;DHT22;15243;50.726;7.080;2022-08-05T18:56:53;20.90;99.90
27900;DHT22;15243;50.726;7.080;2022-08-05T18:59:22;20.90;99.90
27900;DHT22;15243;50.726;7.080;2022-08-05T19:02:09;20.90;99.90
27900;DHT22;15243;50.726;7.080;2022-08-05T19:04:57;20.90;99.90
27900;DHT22;15243;50.726;7.080;2022-08-05T19:07:45;20.90;99.90
27900;DHT22;15243;50.726;7.080;2022-08-05T19:10:14;20.80;99.90
27900;DHT22;15243;50.726;7.080;2022-08-05T19:12:42;20.80;99.90
27900;DHT22;15243;50.726;7.080;2022-08-05T19:15:12;20.70;99.90
27900;DHT22;15243;50.726;7.080;2022-08-05T19:18:00;20.70;99.90
27900;DHT22;15243;50.726;7.080;2022-08-05T19:20:39;20.60;99.90
27900;DHT22;15243;50.726;7.080;2022-08-05T19:23:13;20.60;99.90
27900;DHT22;15243;50.726;7.080;2022-08-05T19:26:00;20.40;99.90
27900;DHT22;15243;50.726;7.080;2022-08-05T19:28:31;20.40;99.90
27900;DHT22;15243;50.726;7.080;2022-08-05T19:30:58;20.40;99.90
27900;DHT22;15243;50.726;7.080;2022-08-05T19:33:27;20.30;99.90
27900;DHT22;15243;50.726;7.080;2022-08-05T19:36:03;20.20;99.90
27900;DHT22;15243;50.726;7.080;2022-08-05T19:38:35;20.20;99.90
27900;DHT22;15243;50.726;7.080;2022-08-05T19:41:03;20.10;99.90
27900;DHT22;15243;50.726;7.080;2022-08-05T19:43:33;20.10;99.90
27900;DHT22;15243;50.726;7.080;2022-08-05T19:46:20;20.00;99.90
27900;DHT22;15243;50.726;7.080;2022-08-05T19:49:01;20.00;99.90
27900;DHT22;15243;50.726;7.080;2022-08-05T19:51:29;20.00;99.90
27900;DHT22;15243;50.726;7.080;2022-08-05T19:54:17;20.00;99.90
27900;DHT22;15243;50.726;7.080;2022-08-05T19:56:57;19.80;99.90
27900;DHT22;15243;50.726;7.080;2022-08-05T19:59:25;19.90;99.90
27900;DHT22;15243;50.726;7.080;2022-08-05T20:02:13;19.80;99.90
27900;DHT22;15243;50.726;7.080;2022-08-05T20:04:43;20.00;99.90
27900;DHT22;15243;50.726;7.080;2022-08-05T20:07:12;19.80;99.90
27900;DHT22;15243;50.726;7.080;2022-08-05T20:09:40;19.80;99.90
27900;DHT22;15243;50.726;7.080;2022-08-05T20:12:19;19.60;99.90
27900;DHT22;15243;50.726;7.080;2022-08-05T20:14:46;19.50;99.90
27900;DHT22;15243;50.726;7.080;2022-08-05T20:17:18;19.30;99.90
27900;DHT22;15243;50.726;7.080;2022-08-05T20:19:50;19.30;99.90
27900;DHT22;15243;50.726;7.080;2022-08-05T20:22:23;19.20;99.90
27900;DHT22;15243;50.726;7.080;2022-08-05T20:24:54;19.00;99.90
27900;DHT22;15243;50.726;7.080;2022-08-05T20:27:21;18.90;99.90
27900;DHT22;15243;50.726;7.080;2022-08-05T20:29:56;18.90;99.90
27900;DHT22;15243;50.726;7.080;2022-08-05T20:32:25;19.00;99.90
27900;DHT22;15243;50.726;7.080;2022-08-05T20:34:53;18.90;99.90
27900;DHT22;15243;50.726;7.080;2022-08-05T20:37:20;19.00;99.90
27900;DHT22;15243;50.726;7.080;2022-08-05T20:40:08;18.80;99.90
27900;DHT22;15243;50.726;7.080;2022-08-05T20:42:35;18.60;99.90
27900;DHT22;15243;50.726;7.080;2022-08-05T20:45:03;18.60;99.90
27900;DHT22;15243;50.726;7.080;2022-08-05T20:47:31;18.50;99.90
27900;DHT22;15243;50.726;7.080;2022-08-05T20:49:59;18.40;99.90
27900;DHT22;15243;50.726;7.080;2022-08-05T20:52:28;18.60;99.90
27900;DHT22;15243;50.726;7.080;2022-08-05T20:54:56;18.50;99.90
27900;DHT22;15243;50.726;7.080;2022-08-05T20:57:43;18.50;99.90
27900;DHT22;15243;50.726;7.080;2022-08-05T21:00:12;18.50;99.90
27900;DHT22;15243;50.726;7.080;2022-08-05T21:03:00;18.20;99.90
27900;DHT22;15243;50.726;7.080;2022-08-05T21:05:35;18.30;99.90
27900;DHT22;15243;50.726;7.080;2022-08-05T21:08:24;18.20;99.90
27900;DHT22;15243;50.726;7.080;2022-08-05T21:11:11;18.10;99.90
27900;DHT22;15243;50.726;7.080;2022-08-05T21:13:58;18.00;99.90
27900;DHT22;15243;50.726;7.080;2022-08-05T21:16:26;18.00;99.90
27900;DHT22;15243;50.726;7.080;2022-08-05T21:18:59;18.00;99.90
27900;DHT22;15243;50.726;7.080;2022-08-05T21:21:28;17.90;99.90
27900;DHT22;15243;50.726;7.080;2022-08-05T21:24:09;17.80;99.90
27900;DHT22;15243;50.726;7.080;2022-08-05T21:26:39;17.80;99.90
27900;DHT22;15243;50.726;7.080;2022-08-05T21:29:07;17.70;99.90
27900;DHT22;15243;50.726;7.080;2022-08-05T21:31:42;17.70;99.90
27900;DHT22;15243;50.726;7.080;2022-08-05T21:34:09;17.70;99.90
27900;DHT22;15243;50.726;7.080;2022-08-05T21:36:37;17.60;99.90
27900;DHT22;15243;50.726;7.080;2022-08-05T21:39:08;17.60;99.90
27900;DHT22;15243;50.726;7.080;2022-08-05T21:41:40;17.60;99.90
27900;DHT22;15243;50.726;7.080;2022-08-05T21:44:18;17.70;99.90
27900;DHT22;15243;50.726;7.080;2022-08-05T21:46:52;17.50;99.90
27900;DHT22;15243;50.726;7.080;2022-08-05T21:49:23;17.50;99.90
27900;DHT22;15243;50.726;7.080;2022-08-05T21:52:10;17.60;99.90
27900;DHT22;15243;50.726;7.080;2022-08-05T21:54:55;17.50;99.90
27900;DHT22;15243;50.726;7.080;2022-08-05T21:57:22;17.50;99.90
27900;DHT22;15243;50.726;7.080;2022-08-05T21:59:59;17.50;99.90
27900;DHT22;15243;50.726;7.080;2022-08-05T22:02:32;17.40;99.90
27900;DHT22;15243;50.726;7.080;2022-08-05T22:04:59;17.30;99.90
27900;DHT22;15243;50.726;7.080;2022-08-05T22:07:26;17.20;99.90
27900;DHT22;15243;50.726;7.080;2022-08-05T22:10:15;17.20;99.90
27900;DHT22;15243;50.726;7.080;2022-08-05T22:12:42;17.10;99.90
27900;DHT22;15243;50.726;7.080;2022-08-05T22:15:16;17.20;99.90
27900;DHT22;15243;50.726;7.080;2022-08-05T22:18:03;17.10;99.90
27900;DHT22;15243;50.726;7.080;2022-08-05T22:20:30;17.10;99.90
27900;DHT22;15243;50.726;7.080;2022-08-05T22:23:01;17.00;99.90
27900;DHT22;15243;50.726;7.080;2022-08-05T22:25:47;17.20;99.90
27900;DHT22;15243;50.726;7.080;2022-08-05T22:28:37;17.30;99.90
27900;DHT22;15243;50.726;7.080;2022-08-05T22:31:04;17.10;99.90
27900;DHT22;15243;50.726;7.080;2022-08-05T22:33:32;17.00;99.90
27900;DHT22;15243;50.726;7.080;2022-08-05T22:36:19;17.00;99.90
27900;DHT22;15243;50.726;7.080;2022-08-05T22:38:50;17.00;99.90
27900;DHT22;15243;50.726;7.080;2022-08-05T22:41:20;17.10;99.90
27900;DHT22;15243;50.726;7.080;2022-08-05T22:44:07;17.10;99.90
27900;DHT22;15243;50.726;7.080;2022-08-05T22:46:35;17.00;99.90
27900;DHT22;15243;50.726;7.080;2022-08-05T22:49:10;17.00;99.90
27900;DHT22;15243;50.726;7.080;2022-08-05T22:51:57;16.90;99.90
27900;DHT22;15243;50.726;7.080;2022-08-05T22:54:36;16.90;99.90
27900;DHT22;15243;50.726;7.080;2022-08-05T22:57:05;16.80;99.90
27900;DHT22;15243;50.726;7.080;2022-08-05T22:59:32;16.80;99.90
27900;DHT22;15243;50.726;7.080;2022-08-05T23:02:14;16.80;99.90
27900;DHT22;15243;50.726;7.080;2022-08-05T23:04:43;16.80;99.90
27900;DHT22;15243;50.726;7.080;2022-08-05T23:07:18;16.80;99.90
27900;DHT22;15243;50.726;7.080;2022-08-05T23:09:48;16.70;99.90
27900;DHT22;15243;50.726;7.080;2022-08-05T23:12:25;16.70;99.90
27900;DHT22;15243;50.726;7.080;2022-08-05T23:14:54;16.70;99.90
27900;DHT22;15243;50.726;7.080;2022-08-05T23:17:21;16.70;99.90
27900;DHT22;15243;50.726;7.080;2022-08-05T23:20:06;16.80;99.90
27900;DHT22;15243;50.726;7.080;2022-08-05T23:22:44;16.70;99.90
27900;DHT22;15243;50.726;7.080;2022-08-05T23:25:15;16.60;99.90
27900;DHT22;15243;50.726;7.080;2022-08-05T23:28:04;16.50;99.90
27900;DHT22;15243;50.726;7.080;2022-08-05T23:30:34;16.40;99.90
27900;DHT22;15243;50.726;7.080;2022-08-05T23:33:10;16.30;99.90
27900;DHT22;15243;50.726;7.080;2022-08-05T23:35:52;16.30;99.90
27900;DHT22;15243;50.726;7.080;2022-08-05T23:38:22;16.30;99.90
27900;DHT22;15243;50.726;7.080;2022-08-05T23:40:50;16.20;99.90
27900;DHT22;15243;50.726;7.080;2022-08-05T23:43:18;16.20;99.90
27900;DHT22;15243;50.726;7.080;2022-08-05T23:46:02;16.20;99.90
27900;DHT22;15243;50.726;7.080;2022-08-05T23:48:29;16.10;99.90
27900;DHT22;15243;50.726;7.080;2022-08-05T23:50:56;16.10;99.90
27900;DHT22;15243;50.726;7.080;2022-08-05T23:53:24;16.10;99.90
27900;DHT22;15243;50.726;7.080;2022-08-05T23:56:11;16.00;99.90
27900;DHT22;15243;50.726;7.080;2022-08-05T23:58:45;16.00;99.90
